createdAt,value
2023-10-24T00:02:25.130Z,98623.56
2023-10-24T00:04:51.672Z,98622.16
2023-10-24T00:07:18.190Z,98615.72
2023-10-24T00:09:44.723Z,98607.97
2023-10-24T00:12:11.203Z,98597.28
2023-10-24T00:14:37.810Z,98593.47
2023-10-24T00:17:05.151Z,98596.53
2023-10-24T00:19:31.786Z,98585.41
2023-10-24T00:21:58.450Z,98579.97
2023-10-24T00:24:27.048Z,98581.66
2023-10-24T00:26:53.559Z,98576.38
2023-10-24T00:29:20.045Z,98576.28
2023-10-24T00:31:46.645Z,98574.97
2023-10-24T00:34:13.924Z,98578.88
2023-10-24T00:36:42.014Z,98575.53
2023-10-24T00:39:09.623Z,98562.53
2023-10-24T00:41:36.475Z,98559.38
2023-10-24T00:44:03.159Z,98548.91
2023-10-24T00:46:30.997Z,98553.78
2023-10-24T00:48:58.176Z,98537.97
2023-10-24T00:51:24.903Z,98538.25
2023-10-24T00:53:53.126Z,98536.03
2023-10-24T00:56:21.602Z,98543.31
2023-10-24T00:58:49.442Z,98550.69
2023-10-24T01:01:16.698Z,98553.19
2023-10-24T01:03:44.275Z,98553.41
2023-10-24T01:06:11.036Z,98534.31
2023-10-24T01:08:37.718Z,98542.53
2023-10-24T01:11:05.491Z,98542.44
2023-10-24T01:13:33.161Z,98529.25
2023-10-24T01:15:59.740Z,98532.06
2023-10-24T01:22:13.400Z,98537.94
2023-10-24T01:24:40.314Z,98545.88
2023-10-24T01:27:07.054Z,98535.41
2023-10-24T01:29:33.572Z,98536.06
2023-10-24T01:32:00.196Z,98532.25
2023-10-24T01:34:26.858Z,98545.81
2023-10-24T01:36:53.400Z,98538.13
2023-10-24T01:39:19.896Z,98537.09
2023-10-24T01:41:46.494Z,98529.13
2023-10-24T01:44:12.998Z,98524.19
2023-10-24T01:46:39.563Z,98527.94
2023-10-24T01:49:06.181Z,98535.97
2023-10-24T01:51:32.690Z,98524.28
2023-10-24T01:53:59.214Z,98519.03
2023-10-24T01:56:25.758Z,98516.13
2023-10-24T01:58:52.416Z,98513.22
2023-10-24T02:01:18.980Z,98505.19
2023-10-24T02:03:45.605Z,98503.31
2023-10-24T02:06:12.419Z,98503.72
2023-10-24T02:08:38.880Z,98500.06
2023-10-24T02:11:05.458Z,98495.31
2023-10-24T02:13:32.061Z,98503.44
2023-10-24T02:15:58.637Z,98502.16
2023-10-24T02:18:25.156Z,98507.00
2023-10-24T02:20:51.660Z,98504.06
2023-10-24T02:23:18.471Z,98512.59
2023-10-24T02:25:45.070Z,98499.22
2023-10-24T02:28:12.646Z,98496.50
2023-10-24T02:30:39.388Z,98510.28
2023-10-24T02:33:06.277Z,98509.81
2023-10-24T02:35:32.854Z,98510.28
2023-10-24T02:37:59.316Z,98491.66
2023-10-24T02:40:25.859Z,98485.66
2023-10-24T02:42:52.412Z,98486.69
2023-10-24T02:45:19.109Z,98487.44
2023-10-24T02:47:45.749Z,98482.16
2023-10-24T02:50:12.364Z,98500.66
2023-10-24T02:52:39.339Z,98490.84
2023-10-24T02:55:07.052Z,98478.22
2023-10-24T02:57:33.555Z,98486.19
2023-10-24T03:00:00.112Z,98484.31
2023-10-24T03:02:27.050Z,98477.72
2023-10-24T03:04:53.584Z,98485.66
2023-10-24T03:07:20.192Z,98489.88
2023-10-24T03:09:47.689Z,98485.34
2023-10-24T03:12:14.705Z,98469.31
2023-10-24T03:14:41.394Z,98470.16
2023-10-24T03:17:09.648Z,98472.31
2023-10-24T03:19:36.312Z,98466.22
2023-10-24T03:22:02.913Z,98459.09
2023-10-24T03:24:32.613Z,98464.47
2023-10-24T03:26:59.155Z,98457.81
2023-10-24T03:29:25.691Z,98458.59
2023-10-24T03:31:52.170Z,98457.09
2023-10-24T03:34:18.864Z,98459.44
2023-10-24T03:36:45.556Z,98457.56
2023-10-24T03:39:12.065Z,98452.06
2023-10-24T03:41:38.666Z,98463.16
2023-10-24T03:44:05.423Z,98455.56
2023-10-24T03:46:32.091Z,98466.16
2023-10-24T03:48:58.722Z,98478.56
2023-10-24T03:51:26.076Z,98474.16
2023-10-24T03:53:52.717Z,98472.94
2023-10-24T03:56:19.272Z,98460.72
2023-10-24T03:58:45.820Z,98466.28
2023-10-24T04:01:12.806Z,98472.63
2023-10-24T04:03:39.451Z,98476.28
2023-10-24T04:06:12.643Z,98481.97
2023-10-24T04:08:40.348Z,98480.03
2023-10-24T04:11:17.489Z,98478.53
2023-10-24T04:13:45.062Z,98463.28
2023-10-24T04:16:12.216Z,98457.53
2023-10-24T04:18:39.703Z,98451.91
2023-10-24T04:21:06.444Z,98446.03
2023-10-24T04:23:33.236Z,98450.88
2023-10-24T04:25:59.734Z,98445.94
2023-10-24T04:28:26.303Z,98447.88
2023-10-24T04:30:53.634Z,98448.66
2023-10-24T04:33:20.273Z,98434.72
2023-10-24T04:35:48.605Z,98434.53
2023-10-24T04:38:15.316Z,98441.44
2023-10-24T04:40:41.896Z,98434.78
2023-10-24T04:43:09.882Z,98435.03
2023-10-24T04:45:37.713Z,98426.53
2023-10-24T04:48:05.971Z,98395.59
2023-10-24T04:50:36.607Z,98397.78
2023-10-24T04:53:03.140Z,98383.50
2023-10-24T04:55:30.012Z,98382.50
2023-10-24T04:57:56.562Z,98386.88
2023-10-24T05:00:23.382Z,98382.56
2023-10-24T05:02:49.906Z,98385.25
2023-10-24T05:05:16.532Z,98389.59
2023-10-24T05:07:43.101Z,98382.38
2023-10-24T05:10:11.345Z,98387.34
2023-10-24T05:12:38.494Z,98374.41
2023-10-24T05:15:06.171Z,98371.69
2023-10-24T05:17:32.771Z,98371.00
2023-10-24T05:20:00.789Z,98382.53
2023-10-24T05:22:27.401Z,98383.84
2023-10-24T05:24:54.086Z,98381.56
2023-10-24T05:27:20.756Z,98352.56
2023-10-24T05:29:47.386Z,98361.91
2023-10-24T05:32:14.175Z,98367.56
2023-10-24T05:34:41.052Z,98370.25
2023-10-24T05:37:07.800Z,98355.59
2023-10-24T05:39:34.561Z,98353.69
2023-10-24T05:42:01.110Z,98335.97
2023-10-24T05:44:27.602Z,98352.94
2023-10-24T05:46:56.155Z,98360.25
2023-10-24T05:49:23.192Z,98355.41
2023-10-24T05:51:49.968Z,98357.91
2023-10-24T05:54:16.627Z,98370.41
2023-10-24T05:56:43.262Z,98366.06
2023-10-24T05:59:09.774Z,98359.41
2023-10-24T06:01:36.402Z,98364.25
2023-10-24T06:04:03.059Z,98359.31
2023-10-24T06:06:29.651Z,98359.31
2023-10-24T06:08:56.147Z,98367.06
2023-10-24T06:11:22.670Z,98365.16
2023-10-24T06:13:49.222Z,98361.44
2023-10-24T06:16:19.517Z,98363.81
2023-10-24T06:18:46.219Z,98352.41
2023-10-24T06:21:13.648Z,98361.00
2023-10-24T06:23:40.448Z,98347.41
2023-10-24T06:26:14.585Z,98342.81
2023-10-24T06:28:41.830Z,98336.94
2023-10-24T06:31:08.816Z,98332.78
2023-10-24T06:33:38.361Z,98334.47
2023-10-24T06:36:06.159Z,98346.56
2023-10-24T06:38:32.736Z,98340.34
2023-10-24T06:41:00.118Z,98349.78
2023-10-24T06:43:27.393Z,98354.44
2023-10-24T06:45:55.045Z,98354.69
2023-10-24T06:48:21.758Z,98342.16
2023-10-24T06:50:49.153Z,98346.56
2023-10-24T06:53:15.787Z,98342.59
2023-10-24T06:55:42.887Z,98330.47
2023-10-24T06:58:09.603Z,98336.19
2023-10-24T07:00:36.408Z,98335.72
2023-10-24T07:03:03.026Z,98323.81
2023-10-24T07:05:29.809Z,98329.69
2023-10-24T07:07:56.494Z,98309.00
2023-10-24T07:10:23.223Z,98314.88
2023-10-24T07:12:49.934Z,98301.91
2023-10-24T07:15:17.059Z,98298.19
2023-10-24T07:17:44.174Z,98299.06
2023-10-24T07:20:11.596Z,98286.13
2023-10-24T07:22:38.373Z,98279.44
2023-10-24T07:25:05.741Z,98267.31
2023-10-24T07:27:32.267Z,98270.28
2023-10-24T07:29:58.984Z,98249.56
2023-10-24T07:32:25.648Z,98253.94
2023-10-24T07:34:57.092Z,98258.16
2023-10-24T07:37:25.121Z,98252.91
2023-10-24T07:39:51.893Z,98252.88
2023-10-24T07:42:18.446Z,98237.56
2023-10-24T07:44:45.000Z,98240.31
2023-10-24T07:47:11.689Z,98246.97
2023-10-24T07:49:38.268Z,98245.44
2023-10-24T07:52:05.168Z,98245.25
2023-10-24T07:54:32.050Z,98257.44
2023-10-24T07:56:59.849Z,98249.06
2023-10-24T07:59:27.266Z,98256.00
2023-10-24T08:01:54.402Z,98246.59
2023-10-24T08:04:21.310Z,98239.06
2023-10-24T08:06:47.953Z,98260.41
2023-10-24T08:09:14.506Z,98257.69
2023-10-24T08:11:41.656Z,98253.09
2023-10-24T08:14:08.215Z,98257.47
2023-10-24T08:16:34.955Z,98247.38
2023-10-24T08:19:01.551Z,98257.03
2023-10-24T08:21:28.141Z,98258.09
2023-10-24T08:23:55.781Z,98242.25
2023-10-24T08:26:22.440Z,98253.53
2023-10-24T08:28:49.416Z,98257.06
2023-10-24T08:31:16.134Z,98253.31
2023-10-24T08:33:43.110Z,98264.66
2023-10-24T08:36:09.766Z,98249.56
2023-10-24T08:38:36.332Z,98249.34
2023-10-24T08:41:03.516Z,98238.84
2023-10-24T08:43:30.515Z,98237.97
2023-10-24T08:45:58.781Z,98238.97
2023-10-24T08:48:40.581Z,98236.38
2023-10-24T08:51:07.332Z,98230.31
2023-10-24T08:53:33.969Z,98237.00
2023-10-24T08:56:01.279Z,98235.31
2023-10-24T08:58:29.269Z,98219.16
2023-10-24T09:00:56.031Z,98226.94
2023-10-24T09:03:23.651Z,98232.97
2023-10-24T09:05:50.984Z,98242.03
2023-10-24T09:08:19.207Z,98252.59
2023-10-24T09:10:46.628Z,98258.72
2023-10-24T09:13:14.112Z,98256.91
2023-10-24T09:15:40.805Z,98260.47
2023-10-24T09:18:07.860Z,98281.47
2023-10-24T09:20:34.805Z,98292.25
2023-10-24T09:23:08.557Z,98285.28
2023-10-24T09:25:35.596Z,98280.09
2023-10-24T09:28:19.303Z,98278.25
2023-10-24T09:30:46.482Z,98282.72
2023-10-24T09:33:13.292Z,98288.38
2023-10-24T09:35:40.342Z,98289.63
2023-10-24T09:38:08.432Z,98269.09
2023-10-24T09:40:37.603Z,98248.28
2023-10-24T09:43:20.088Z,98229.84
2023-10-24T09:45:47.776Z,98221.78
2023-10-24T09:48:15.985Z,98210.41
2023-10-24T09:50:43.356Z,98208.03
2023-10-24T09:53:11.300Z,98217.44
2023-10-24T09:55:46.968Z,98210.91
2023-10-24T09:58:14.414Z,98233.63
2023-10-24T10:00:41.763Z,98231.09
2023-10-24T10:03:11.010Z,98229.00
2023-10-24T10:05:37.860Z,98220.19
2023-10-24T10:08:08.727Z,98224.16
2023-10-24T10:10:38.341Z,98217.09
2023-10-24T10:13:08.847Z,98202.69
2023-10-24T10:16:03.574Z,98197.69
2023-10-24T10:18:56.324Z,98182.56
2023-10-24T10:21:33.977Z,98178.50
2023-10-24T10:24:09.414Z,98176.66
2023-10-24T10:27:03.667Z,98170.59
2023-10-24T10:30:12.786Z,98167.31
2023-10-24T10:32:58.256Z,98182.66
2023-10-24T10:35:56.342Z,98179.63
2023-10-24T10:38:48.464Z,98178.78
2023-10-24T10:41:24.168Z,98161.03
2023-10-24T10:43:55.258Z,98173.63
2023-10-24T10:46:25.115Z,98175.09
2023-10-24T10:48:52.180Z,98182.06
2023-10-24T10:51:26.001Z,98182.63
2023-10-24T10:54:43.813Z,98173.16
2023-10-24T10:57:15.903Z,98170.72
2023-10-24T10:59:58.678Z,98179.63
2023-10-24T11:02:34.261Z,98185.19
2023-10-24T11:05:00.945Z,98178.38
2023-10-24T11:07:52.587Z,98174.03
2023-10-24T11:10:19.825Z,98180.38
2023-10-24T11:12:49.645Z,98176.91
2023-10-24T11:15:18.037Z,98175.97
2023-10-24T11:17:44.944Z,98163.59
2023-10-24T11:22:41.328Z,98152.06
2023-10-24T11:25:11.791Z,98152.28
2023-10-24T11:27:39.478Z,98150.16
2023-10-24T11:30:07.532Z,98152.78
2023-10-24T11:32:34.919Z,98161.63
2023-10-24T11:35:03.660Z,98175.03
2023-10-24T11:37:30.400Z,98161.88
2023-10-24T11:40:00.292Z,98173.78
2023-10-24T11:42:27.781Z,98171.31
2023-10-24T11:44:54.471Z,98168.41
2023-10-24T11:47:21.052Z,98168.00
2023-10-24T11:49:48.174Z,98170.00
2023-10-24T11:52:15.075Z,98177.53
2023-10-24T11:54:41.814Z,98160.81
2023-10-24T11:57:08.734Z,98163.13
2023-10-24T11:59:36.619Z,98153.31
2023-10-24T12:02:04.803Z,98147.13
2023-10-24T12:04:32.168Z,98142.13
2023-10-24T12:07:05.458Z,98129.34
2023-10-24T12:09:35.939Z,98142.59
2023-10-24T12:12:03.675Z,98114.69
2023-10-24T12:14:30.258Z,98120.75
2023-10-24T12:16:59.932Z,98114.03
2023-10-24T12:19:27.121Z,98096.00
2023-10-24T12:21:54.998Z,98080.31
2023-10-24T12:24:21.610Z,98069.56
2023-10-24T12:26:48.707Z,98077.50
2023-10-24T12:29:15.295Z,98077.97
2023-10-24T12:31:42.065Z,98083.00
2023-10-24T12:34:13.750Z,98071.78
2023-10-24T12:36:40.380Z,98068.91
2023-10-24T12:39:06.908Z,98064.69
2023-10-24T12:41:33.454Z,98064.88
2023-10-24T12:44:00.616Z,98062.94
2023-10-24T12:46:27.412Z,98079.06
2023-10-24T12:49:01.563Z,98097.13
2023-10-24T12:51:29.402Z,98099.25
2023-10-24T12:53:55.930Z,98103.25
2023-10-24T12:56:22.567Z,98087.31
2023-10-24T12:58:51.763Z,98094.56
2023-10-24T13:01:18.907Z,98091.50
2023-10-24T13:03:45.663Z,98080.38
2023-10-24T13:06:12.349Z,98072.03
2023-10-24T13:08:38.915Z,98072.69
2023-10-24T13:11:05.637Z,98069.97
2023-10-24T13:13:32.264Z,98070.19
2023-10-24T13:15:58.906Z,98063.34
2023-10-24T13:18:27.736Z,98062.47
2023-10-24T13:20:54.294Z,98062.03
2023-10-24T13:23:20.776Z,98059.09
2023-10-24T13:25:47.773Z,98051.13
2023-10-24T13:28:14.318Z,98051.81
2023-10-24T13:30:47.088Z,98052.91
2023-10-24T13:33:19.422Z,98051.88
2023-10-24T13:38:15.265Z,98048.97
2023-10-24T13:40:41.798Z,98044.94
2023-10-24T13:43:08.347Z,98031.34
2023-10-24T13:45:34.966Z,98028.19
2023-10-24T13:48:01.467Z,98026.72
2023-10-24T13:50:28.181Z,98015.63
2023-10-24T13:52:54.758Z,98018.59
2023-10-24T13:55:21.318Z,98023.00
2023-10-24T13:57:48.117Z,98019.72
2023-10-24T14:00:15.200Z,98011.09
2023-10-24T14:02:41.846Z,97998.91
2023-10-24T14:05:08.891Z,97996.59
2023-10-24T14:07:35.559Z,97980.50
2023-10-24T14:10:02.081Z,97987.44
2023-10-24T14:12:28.627Z,97984.66
2023-10-24T14:14:55.181Z,98001.72
2023-10-24T14:17:21.693Z,98017.88
2023-10-24T14:19:50.252Z,98016.66
2023-10-24T14:22:16.874Z,98018.16
2023-10-24T14:24:43.359Z,98017.31
2023-10-24T14:27:09.920Z,98009.34
2023-10-24T14:29:36.789Z,98004.97
2023-10-24T14:32:03.611Z,97996.81
2023-10-24T14:34:30.202Z,97996.38
2023-10-24T14:36:56.985Z,98018.78
2023-10-24T14:39:23.502Z,98032.16
2023-10-24T14:41:50.768Z,98030.09
2023-10-24T14:44:17.384Z,98031.13
2023-10-24T14:46:48.501Z,98026.94
2023-10-24T14:49:16.994Z,98027.38
2023-10-24T14:51:44.481Z,98023.00
2023-10-24T14:54:13.962Z,98026.16
2023-10-24T14:56:40.370Z,98021.72
2023-10-24T14:59:06.921Z,98020.72
2023-10-24T15:01:33.482Z,98017.78
2023-10-24T15:04:00.059Z,98011.31
2023-10-24T15:06:27.591Z,98001.47
2023-10-24T15:08:55.281Z,98003.19
2023-10-24T15:11:21.837Z,97993.97
2023-10-24T15:13:48.459Z,97981.84
2023-10-24T15:16:15.074Z,97968.06
2023-10-24T15:18:41.961Z,97982.91
2023-10-24T15:21:08.584Z,97992.31
2023-10-24T15:23:35.418Z,97996.91
2023-10-24T15:26:02.631Z,97987.53
2023-10-24T15:28:29.197Z,97983.75
2023-10-24T15:30:55.755Z,97972.28
2023-10-24T15:33:24.340Z,97969.34
2023-10-24T15:35:59.134Z,97965.56
2023-10-24T15:38:25.784Z,97975.19
2023-10-24T15:40:52.504Z,97967.66
2023-10-24T15:43:19.165Z,97957.84
2023-10-24T15:46:05.790Z,97956.41
2023-10-24T15:48:33.008Z,97959.75
2023-10-24T15:51:04.460Z,97947.63
2023-10-24T15:53:31.762Z,97950.34
2023-10-24T15:55:59.608Z,97951.38
2023-10-24T15:58:33.078Z,97940.31
2023-10-24T16:00:59.775Z,97949.28
2023-10-24T16:03:26.471Z,97946.56
2023-10-24T16:05:53.625Z,97949.72
2023-10-24T16:08:20.264Z,97956.41
2023-10-24T16:10:48.340Z,97955.56
2023-10-24T16:13:14.981Z,97961.00
2023-10-24T16:15:41.592Z,97965.78
2023-10-24T16:18:10.106Z,97967.06
2023-10-24T16:20:36.727Z,97965.59
2023-10-24T16:23:03.964Z,97971.03
2023-10-24T16:25:32.429Z,97969.34
2023-10-24T16:27:58.946Z,97970.19
2023-10-24T16:30:25.618Z,97969.34
2023-10-24T16:32:53.789Z,97961.44
2023-10-24T16:35:20.588Z,97962.44
2023-10-24T16:37:47.194Z,97959.72
2023-10-24T16:40:13.764Z,97967.88
2023-10-24T16:42:40.261Z,97963.72
2023-10-24T16:45:08.012Z,97963.50
2023-10-24T16:47:34.538Z,97961.41
2023-10-24T16:50:01.230Z,97973.31
2023-10-24T16:52:27.840Z,97955.34
2023-10-24T16:54:54.381Z,97954.94
2023-10-24T16:57:20.905Z,97956.81
2023-10-24T16:59:47.383Z,97932.97
2023-10-24T17:02:14.160Z,97932.34
2023-10-24T17:04:41.040Z,97935.88
2023-10-24T17:07:07.794Z,97934.03
2023-10-24T17:09:35.854Z,97938.41
2023-10-24T17:12:02.790Z,97949.44
2023-10-24T17:14:29.327Z,97937.31
2023-10-24T17:16:55.911Z,97936.50
2023-10-24T17:19:22.511Z,97939.84
2023-10-24T17:21:49.072Z,97958.22
2023-10-24T17:24:15.584Z,97948.19
2023-10-24T17:26:42.105Z,97947.19
2023-10-24T17:29:08.651Z,97952.78
2023-10-24T17:31:35.354Z,97955.09
2023-10-24T17:34:03.136Z,97950.50
2023-10-24T17:36:29.588Z,97949.44
2023-10-24T17:38:56.118Z,97949.44
2023-10-24T17:41:22.742Z,97948.63
2023-10-24T17:43:49.297Z,97940.91
2023-10-24T17:46:21.662Z,97934.44
2023-10-24T17:48:49.579Z,97931.91
2023-10-24T17:51:16.073Z,97936.31
2023-10-24T17:53:42.696Z,97934.59
2023-10-24T17:56:09.231Z,97938.38
2023-10-24T17:58:36.544Z,97933.78
2023-10-24T18:01:03.941Z,97926.69
2023-10-24T18:03:30.513Z,97923.72
2023-10-24T18:05:57.160Z,97921.44
2023-10-24T18:08:23.670Z,97920.22
2023-10-24T18:10:54.299Z,97921.88
2023-10-24T18:13:20.864Z,97923.34
2023-10-24T18:15:47.395Z,97921.25
2023-10-24T18:18:16.169Z,97908.72
2023-10-24T18:20:42.730Z,97912.06
2023-10-24T18:23:09.479Z,97912.06
2023-10-24T18:25:36.071Z,97914.78
2023-10-24T18:28:02.586Z,97919.19
2023-10-24T18:30:29.069Z,97927.94
2023-10-24T18:32:55.659Z,97932.53
2023-10-24T18:35:22.334Z,97927.13
2023-10-24T18:37:48.957Z,97919.19
2023-10-24T18:40:17.317Z,97921.03
2023-10-24T18:42:44.845Z,97930.22
2023-10-24T18:45:11.438Z,97929.56
2023-10-24T18:47:38.030Z,97923.72
2023-10-24T18:50:05.033Z,97904.06
2023-10-24T18:52:31.585Z,97918.06
2023-10-24T18:54:58.125Z,97912.03
2023-10-24T18:57:24.709Z,97915.97
2023-10-24T19:02:21.629Z,97917.00
2023-10-24T19:04:49.701Z,97896.59
2023-10-24T19:07:16.310Z,97892.00
2023-10-24T19:09:43.173Z,97903.09
2023-10-24T19:12:10.613Z,97902.47
2023-10-24T19:14:37.554Z,97899.75
2023-10-24T19:17:04.462Z,97877.41
2023-10-24T19:19:31.208Z,97885.13
2023-10-24T19:21:57.947Z,97894.94
2023-10-24T19:24:26.505Z,97881.19
2023-10-24T19:26:53.949Z,97892.44
2023-10-24T19:29:20.821Z,97899.75
2023-10-24T19:31:47.672Z,97892.22
2023-10-24T19:34:14.472Z,97891.19
2023-10-24T19:36:44.363Z,97887.44
2023-10-24T19:39:11.373Z,97895.59
2023-10-24T19:41:38.135Z,97884.94
2023-10-24T19:44:04.961Z,97897.25
2023-10-24T19:46:36.749Z,97889.13
2023-10-24T19:49:05.097Z,97891.59
2023-10-24T19:51:34.361Z,97897.03
2023-10-24T19:54:02.790Z,97882.66
2023-10-24T19:56:31.937Z,97881.59
2023-10-24T19:58:58.869Z,97874.53
2023-10-24T20:01:25.777Z,97863.66
2023-10-24T20:03:52.752Z,97872.19
2023-10-24T20:06:19.641Z,97875.34
2023-10-24T20:08:46.382Z,97873.88
2023-10-24T20:12:32.821Z,97869.06
2023-10-24T20:14:02.059Z,97857.19
2023-10-24T20:16:32.207Z,97858.22
2023-10-24T20:18:59.367Z,97868.66
2023-10-24T20:21:26.459Z,97864.50
2023-10-24T20:23:53.476Z,97864.28
2023-10-24T20:26:22.236Z,97869.47
2023-10-24T20:28:48.748Z,97868.25
2023-10-24T20:31:15.507Z,97869.72
2023-10-24T20:33:42.163Z,97874.09
2023-10-24T20:36:09.334Z,97873.03
2023-10-24T20:38:35.984Z,97881.19
2023-10-24T20:41:02.592Z,97877.63
2023-10-24T20:43:29.089Z,97885.13
2023-10-24T20:45:55.636Z,97883.28
2023-10-24T20:48:22.228Z,97880.34
2023-10-24T20:50:49.182Z,97891.19
2023-10-24T20:53:15.780Z,97882.88
2023-10-24T20:55:42.449Z,97883.47
2023-10-24T20:58:09.074Z,97882.66
2023-10-24T21:00:35.714Z,97890.56
2023-10-24T21:03:03.662Z,97888.47
2023-10-24T21:05:30.275Z,97892.66
2023-10-24T21:07:57.433Z,97891.63
2023-10-24T21:10:23.980Z,97883.28
2023-10-24T21:12:51.791Z,97882.44
2023-10-24T21:15:18.505Z,97879.31
2023-10-24T21:17:46.228Z,97886.00
2023-10-24T21:20:13.087Z,97886.41
2023-10-24T21:22:39.705Z,97883.47
2023-10-24T21:25:06.886Z,97878.28
2023-10-24T21:27:33.406Z,97877.44
2023-10-24T21:29:59.938Z,97874.72
2023-10-24T21:32:26.485Z,97877.63
2023-10-24T21:34:53.169Z,97879.31
2023-10-24T21:37:19.764Z,97870.53
2023-10-24T21:39:46.323Z,97873.91
2023-10-24T21:42:12.955Z,97873.69
2023-10-24T21:44:47.091Z,97869.09
2023-10-24T21:47:17.321Z,97874.09
2023-10-24T21:49:43.922Z,97875.75
2023-10-24T21:52:10.518Z,97871.56
2023-10-24T21:54:37.244Z,97867.63
2023-10-24T21:57:04.028Z,97868.28
2023-10-24T21:59:30.554Z,97868.03
2023-10-24T22:01:57.118Z,97867.84
2023-10-24T22:04:23.758Z,97869.28
2023-10-24T22:06:50.280Z,97868.03
2023-10-24T22:09:16.838Z,97884.13
2023-10-24T22:11:43.371Z,97870.56
2023-10-24T22:14:09.901Z,97875.13
2023-10-24T22:16:36.506Z,97882.44
2023-10-24T22:19:03.105Z,97878.69
2023-10-24T22:21:29.886Z,97880.78
2023-10-24T22:23:56.442Z,97880.78
2023-10-24T22:26:23.007Z,97878.50
2023-10-24T22:28:49.531Z,97878.47
2023-10-24T22:31:16.214Z,97885.16
2023-10-24T22:33:42.940Z,97890.59
2023-10-24T22:36:09.490Z,97873.69
2023-10-24T22:38:35.992Z,97887.03
2023-10-24T22:41:02.580Z,97897.06
2023-10-24T22:43:29.321Z,97890.59
2023-10-24T22:45:55.920Z,97895.41
2023-10-24T22:48:22.502Z,97906.25
2023-10-24T22:50:49.076Z,97889.34
2023-10-24T22:53:15.587Z,97899.34
2023-10-24T22:55:42.097Z,97895.81
2023-10-24T22:58:08.665Z,97892.06
2023-10-24T23:00:35.286Z,97879.31
2023-10-24T23:03:01.998Z,97894.13
2023-10-24T23:05:28.559Z,97894.75
2023-10-24T23:07:55.079Z,97896.44
2023-10-24T23:10:21.624Z,97894.53
2023-10-24T23:12:48.176Z,97890.81
2023-10-24T23:15:14.807Z,97896.25
2023-10-24T23:17:41.334Z,97891.44
2023-10-24T23:20:09.125Z,97900.19
2023-10-24T23:22:35.678Z,97903.72
2023-10-24T23:25:02.219Z,97903.13
2023-10-24T23:27:31.160Z,97911.44
2023-10-24T23:29:57.690Z,97900.19
2023-10-24T23:32:24.167Z,97906.84
2023-10-24T23:34:50.665Z,97904.13
2023-10-24T23:37:17.261Z,97900.41
2023-10-24T23:39:43.871Z,97886.63
2023-10-24T23:42:11.262Z,97890.78
2023-10-24T23:44:37.822Z,97894.56
2023-10-24T23:47:04.578Z,97886.22
2023-10-24T23:49:31.286Z,97885.16
2023-10-24T23:51:57.857Z,97879.09
2023-10-24T23:54:24.372Z,97889.13
2023-10-24T23:56:50.881Z,97880.34
2023-10-24T23:59:17.418Z,97883.28
